Terminal Aerodrome Forecast
Issued by NWS Grand Forks, ND

Home | Current Version | Previous Version | Text Only | Print | Product List | Glossary Off
Versions: 1 2 3 4 5 6 7 8 9 10 11 12 13 14 15 16 17

000
FTUS43 KFGF 190216 AAA
TAFGFK
TAF AMD
KGFK 190216Z 1902/1924 VRB06KT P6SM FEW200
      TEMPO 1902/1905 5SM HZ
     FM191500 17009KT P6SM SCT200
     FM192100 18011KT P6SM BKN100=

USA.gov is the U.S. government's official web portal to all federal, state and local government web resources and services.